Terminal Aerodrome Forecast
Issued by NWS Charleston, WV

Current Version | Previous Version | Graphics & Text | Print | Product List | Glossary On
Versions: 1 2 3 4 5 6 7 8 9 10 11 12 13 14 15 16 17 18 19 20 21 22
000
FTUS41 KRLX 172300
TAFCRW
TAF
KCRW 172334Z 1800/1824 27011G21KT P6SM -SHSN SCT014 BKN025 OVC040
     FM181000 26013G24KT P6SM OVC025
     FM181100 26013G24KT P6SM OVC035=

USA.gov is the U.S. government's official web portal to all federal, state and local government web resources and services.